createdAt,value
2018-10-12T00:01:35.718Z,22.13
2018-10-12T00:04:05.199Z,18.67
2018-10-12T00:06:35.526Z,21.57
2018-10-12T00:09:08.235Z,21.65
2018-10-12T00:11:37.995Z,25.63
2018-10-12T00:14:07.149Z,27.20
2018-10-12T00:16:36.570Z,23.27
2018-10-12T00:19:05.744Z,21.93
2018-10-12T00:21:35.558Z,25.30
2018-10-12T00:24:05.832Z,24.23
2018-10-12T00:26:35.734Z,20.17
2018-10-12T00:29:05.837Z,21.60
2018-10-12T00:31:35.742Z,21.33
2018-10-12T00:34:05.829Z,21.00
2018-10-12T00:36:35.647Z,23.53
2018-10-12T00:39:07.178Z,20.73
2018-10-12T00:41:36.597Z,19.90
2018-10-12T00:44:05.855Z,21.70
2018-10-12T00:46:35.848Z,22.10
2018-10-12T00:49:05.958Z,20.50
2018-10-12T00:51:36.062Z,20.70
2018-10-12T00:54:06.074Z,19.30
2018-10-12T00:56:36.024Z,22.90
2018-10-12T00:59:06.170Z,17.98
2018-10-12T01:01:36.032Z,19.70
2018-10-12T01:04:06.034Z,18.67
2018-10-12T01:06:36.012Z,17.77
2018-10-12T01:09:06.652Z,20.75
2018-10-12T01:11:36.242Z,18.47
2018-10-12T01:14:05.738Z,18.67
2018-10-12T01:16:36.186Z,18.70
2018-10-12T01:19:06.146Z,18.50
2018-10-12T01:21:36.272Z,20.00
2018-10-12T01:24:05.878Z,18.43
2018-10-12T01:26:36.286Z,19.77
2018-10-12T01:29:06.326Z,21.20
2018-10-12T01:31:36.311Z,20.33
2018-10-12T01:34:06.058Z,23.63
2018-10-12T01:36:36.350Z,21.85
2018-10-12T01:39:06.996Z,21.95
2018-10-12T01:41:36.550Z,20.20
2018-10-12T01:44:05.810Z,24.37
2018-10-12T01:46:35.281Z,20.93
2018-10-12T01:49:04.935Z,17.63
2018-10-12T01:51:34.390Z,19.03
2018-10-12T01:54:03.492Z,21.90
2018-10-12T01:56:32.562Z,18.83
2018-10-12T01:59:01.956Z,19.33
2018-10-12T02:01:31.040Z,17.60
2018-10-12T02:04:00.199Z,19.77
2018-10-12T02:06:29.308Z,17.33
2018-10-12T02:08:58.807Z,23.07
2018-10-12T02:11:27.842Z,21.87
2018-10-12T02:13:56.956Z,20.30
2018-10-12T02:16:26.066Z,19.27
2018-10-12T02:18:55.478Z,17.33
2018-10-12T02:21:24.555Z,17.98
2018-10-12T02:23:53.634Z,17.70
2018-10-12T02:26:22.868Z,17.40
2018-10-12T02:28:52.280Z,18.30
2018-10-12T02:31:21.369Z,17.17
2018-10-12T02:33:50.859Z,20.15
2018-10-12T02:36:20.054Z,17.15
2018-10-12T02:38:49.482Z,17.82
2018-10-12T02:41:18.553Z,20.70
2018-10-12T02:43:47.946Z,21.57
2018-10-12T02:46:17.113Z,20.85
2018-10-12T02:48:46.502Z,21.50
2018-10-12T02:51:16.011Z,19.42
2018-10-12T02:53:45.615Z,22.27
2018-10-12T02:56:19.843Z,17.50
2018-10-12T02:58:49.187Z,17.52
2018-10-12T03:01:18.702Z,21.27
2018-10-12T03:03:47.926Z,21.07
2018-10-12T03:06:17.026Z,17.73
2018-10-12T03:08:46.415Z,20.77
2018-10-12T03:11:15.532Z,22.70
2018-10-12T03:13:44.683Z,20.97
2018-10-12T03:16:14.285Z,19.50
2018-10-12T03:18:43.641Z,28.23
2018-10-12T03:21:12.757Z,20.60
2018-10-12T03:23:41.839Z,19.80
2018-10-12T03:26:10.945Z,18.90
2018-10-12T03:28:40.010Z,21.95
2018-10-12T03:31:09.222Z,19.50
2018-10-12T03:33:38.856Z,21.20
2018-10-12T03:36:07.993Z,18.23
2018-10-12T03:38:37.636Z,17.67
2018-10-12T03:41:07.332Z,21.40
2018-10-12T03:43:37.654Z,20.68
2018-10-12T03:46:07.335Z,20.53
2018-10-12T03:48:37.823Z,20.60
2018-10-12T03:51:07.639Z,24.50
2018-10-12T03:53:37.885Z,19.80
2018-10-12T03:56:07.499Z,18.57
2018-10-12T03:58:37.912Z,19.02
2018-10-12T04:01:08.686Z,18.90
2018-10-12T04:03:38.159Z,19.40
2018-10-12T04:06:07.634Z,16.97
2018-10-12T04:08:38.066Z,17.37
2018-10-12T04:11:07.769Z,21.15
2018-10-12T04:13:37.887Z,16.63
2018-10-12T04:16:08.743Z,23.73
2018-10-12T04:18:38.167Z,25.17
2018-10-12T04:21:08.002Z,22.48
2018-10-12T04:23:38.070Z,27.00
2018-10-12T04:26:08.537Z,20.25
2018-10-12T04:28:38.123Z,17.00
2018-10-12T04:31:08.215Z,15.35
2018-10-12T04:33:38.130Z,21.65
2018-10-12T04:36:08.148Z,18.62
2018-10-12T04:38:49.068Z,19.33
2018-10-12T04:41:19.764Z,19.77
2018-10-12T04:43:50.441Z,22.37
2018-10-12T04:46:22.490Z,19.20
2018-10-12T04:48:52.373Z,25.27
2018-10-12T04:51:24.539Z,18.63
2018-10-12T04:53:54.091Z,23.18
2018-10-12T04:56:23.174Z,19.37
2018-10-12T04:58:52.812Z,24.40
2018-10-12T05:01:21.966Z,20.07
2018-10-12T05:03:51.862Z,19.60
2018-10-12T05:06:21.142Z,23.13
2018-10-12T05:08:50.321Z,21.12
2018-10-12T05:11:19.450Z,16.90
2018-10-12T05:13:48.890Z,18.80
2018-10-12T05:16:18.020Z,20.07
2018-10-12T05:18:47.434Z,20.30
2018-10-12T05:21:16.564Z,24.23
2018-10-12T05:23:46.563Z,19.45
2018-10-12T05:26:15.674Z,20.20
2018-10-12T05:28:45.200Z,24.20
2018-10-12T05:31:14.305Z,16.95
2018-10-12T05:33:43.790Z,21.67
2018-10-12T05:36:12.987Z,19.30
2018-10-12T05:38:42.368Z,21.40
2018-10-12T05:41:11.463Z,20.57
2018-10-12T05:43:40.941Z,21.93
2018-10-12T05:46:10.059Z,21.00
2018-10-12T05:48:50.689Z,25.07
2018-10-12T05:51:19.877Z,20.05
2018-10-12T05:53:51.426Z,25.60
2018-10-12T05:56:24.517Z,18.45
2018-10-12T05:58:56.142Z,25.00
2018-10-12T06:01:25.389Z,19.20
2018-10-12T06:03:54.853Z,23.40
2018-10-12T06:06:23.982Z,18.73
2018-10-12T06:08:54.036Z,25.63
2018-10-12T06:11:23.461Z,19.52
2018-10-12T06:13:53.038Z,19.90
2018-10-12T06:16:22.413Z,21.33
2018-10-12T06:18:52.388Z,19.47
2018-10-12T06:21:21.596Z,22.77
2018-10-12T06:23:50.614Z,23.43
2018-10-12T06:26:19.827Z,24.00
2018-10-12T06:28:49.114Z,22.87
2018-10-12T06:31:18.238Z,17.90
2018-10-12T06:33:47.332Z,21.15
2018-10-12T06:36:16.539Z,19.47
2018-10-12T06:38:46.188Z,23.27
2018-10-12T06:41:15.407Z,23.87
2018-10-12T06:43:44.514Z,24.10
2018-10-12T06:46:13.698Z,21.75
2018-10-12T06:48:42.850Z,20.33
2018-10-12T06:51:12.126Z,22.40
2018-10-12T06:53:41.538Z,21.87
2018-10-12T06:56:10.774Z,19.37
2018-10-12T06:58:40.206Z,24.43
2018-10-12T07:01:09.568Z,25.27
2018-10-12T07:03:39.692Z,22.70
2018-10-12T07:06:09.243Z,41.87
2018-10-12T07:08:39.602Z,27.25
2018-10-12T07:11:10.034Z,21.85
2018-10-12T07:13:39.694Z,23.83
2018-10-12T07:16:09.602Z,24.12
2018-10-12T07:18:39.678Z,20.00
2018-10-12T07:21:09.770Z,20.70
2018-10-12T07:23:39.790Z,25.23
2018-10-12T07:26:09.361Z,23.42
2018-10-12T07:28:39.558Z,22.23
2018-10-12T07:31:09.785Z,19.37
2018-10-12T07:33:39.686Z,21.27
2018-10-12T07:36:09.358Z,21.57
2018-10-12T07:38:39.765Z,20.32
2018-10-12T07:41:09.519Z,22.70
2018-10-12T07:43:39.683Z,21.85
2018-10-12T07:46:09.437Z,23.90
2018-10-12T07:48:39.732Z,28.42
2018-10-12T07:51:09.898Z,22.32
2018-10-12T07:53:39.952Z,23.92
2018-10-12T07:56:09.433Z,27.77
2018-10-12T07:58:39.947Z,20.40
2018-10-12T08:01:09.514Z,23.87
2018-10-12T08:03:39.758Z,18.73
2018-10-12T08:06:09.527Z,20.43
2018-10-12T08:08:39.439Z,18.93
2018-10-12T08:11:09.529Z,23.52
2018-10-12T08:18:40.485Z,19.33
2018-10-12T08:21:09.738Z,21.43
2018-10-12T08:23:39.974Z,16.40
2018-10-12T08:26:10.147Z,17.07
2018-10-12T08:28:40.994Z,15.90
2018-10-12T08:31:10.186Z,15.37
2018-10-12T08:33:40.452Z,15.80
2018-10-12T08:36:10.040Z,17.63
2018-10-12T08:38:40.138Z,14.53
2018-10-12T08:41:10.067Z,11.83
2018-10-12T08:43:40.460Z,16.05
2018-10-12T08:46:10.033Z,13.90
2018-10-12T08:48:40.243Z,12.13
2018-10-12T08:51:10.214Z,12.20
2018-10-12T08:53:40.173Z,12.37
2018-10-12T08:56:10.240Z,12.75
2018-10-12T08:58:40.431Z,15.45
2018-10-12T09:01:10.210Z,11.13
2018-10-12T09:03:40.516Z,11.30
2018-10-12T09:06:10.383Z,11.43
2018-10-12T09:08:40.575Z,14.43
2018-10-12T09:11:10.686Z,12.20
2018-10-12T09:13:40.668Z,11.85
2018-10-12T09:16:10.352Z,11.53
2018-10-12T09:18:40.675Z,12.10
2018-10-12T09:21:10.469Z,8.63
2018-10-12T09:23:40.619Z,10.80
2018-10-12T09:26:10.363Z,10.60
2018-10-12T09:28:40.668Z,9.65
2018-10-12T09:31:10.467Z,10.93
2018-10-12T09:33:40.801Z,9.68
2018-10-12T09:36:10.479Z,8.87
2018-10-12T09:38:40.731Z,12.28
2018-10-12T09:41:10.562Z,12.70
2018-10-12T09:43:40.903Z,11.10
2018-10-12T09:46:10.601Z,10.03
2018-10-12T09:48:40.911Z,9.48
2018-10-12T09:51:10.652Z,8.80
2018-10-12T09:53:40.850Z,15.63
2018-10-12T09:56:10.642Z,9.30
2018-10-12T09:58:41.129Z,11.30
2018-10-12T10:01:15.983Z,9.03
2018-10-12T10:03:52.907Z,12.40
2018-10-12T10:06:21.977Z,12.03
2018-10-12T10:08:51.188Z,13.65
2018-10-12T10:11:20.186Z,9.95
2018-10-12T10:13:49.419Z,9.67
2018-10-12T10:16:18.493Z,12.80
2018-10-12T10:18:47.602Z,10.90
2018-10-12T10:21:16.656Z,11.70
2018-10-12T10:23:45.748Z,9.23
2018-10-12T10:26:14.911Z,7.90
2018-10-12T10:28:44.134Z,8.53
2018-10-12T10:31:13.204Z,8.67
2018-10-12T10:33:42.393Z,10.07
2018-10-12T10:36:11.491Z,8.97
2018-10-12T10:38:41.451Z,7.35
2018-10-12T10:41:11.207Z,8.77
2018-10-12T10:43:41.377Z,9.70
2018-10-12T10:46:11.276Z,11.05
2018-10-12T10:48:41.376Z,7.20
2018-10-12T10:51:11.270Z,7.53
2018-10-12T10:53:41.847Z,9.00
2018-10-12T10:56:11.305Z,9.60
2018-10-12T10:58:41.592Z,7.70
2018-10-12T11:01:11.356Z,6.07
2018-10-12T11:03:41.628Z,8.08
2018-10-12T11:06:11.477Z,7.77
2018-10-12T11:08:41.723Z,11.00
2018-10-12T11:11:11.500Z,7.20
2018-10-12T11:13:41.741Z,7.10
2018-10-12T11:16:11.456Z,9.47
2018-10-12T11:18:41.737Z,6.65
2018-10-12T11:21:11.518Z,7.42
2018-10-12T11:23:41.788Z,6.35
2018-10-12T11:26:11.676Z,7.05
2018-10-12T11:33:35.222Z,8.37
2018-10-12T11:36:04.343Z,6.93
2018-10-12T11:38:33.575Z,7.23
2018-10-12T11:41:02.751Z,8.43
2018-10-12T11:43:34.602Z,6.67
2018-10-12T11:46:03.818Z,5.90
2018-10-12T11:48:32.963Z,8.13
2018-10-12T11:51:02.418Z,8.67
2018-10-12T11:53:31.662Z,7.53
2018-10-12T11:56:00.791Z,6.13
2018-10-12T11:58:29.959Z,9.53
2018-10-12T12:00:59.270Z,10.40
2018-10-12T12:03:28.357Z,7.92
2018-10-12T12:05:57.505Z,10.60
2018-10-12T12:08:26.690Z,6.47
2018-10-12T12:10:55.837Z,6.03
2018-10-12T12:13:25.042Z,8.33
2018-10-12T12:15:54.263Z,6.50
2018-10-12T12:18:23.422Z,5.53
2018-10-12T12:20:52.534Z,7.90
2018-10-12T12:23:21.736Z,7.10
2018-10-12T12:25:50.899Z,5.63
2018-10-12T12:28:20.174Z,7.28
2018-10-12T12:30:49.377Z,10.80
2018-10-12T12:33:18.588Z,6.65
2018-10-12T12:35:48.229Z,11.23
2018-10-12T12:38:17.077Z,8.50
2018-10-12T12:40:46.273Z,6.23
2018-10-12T12:43:15.425Z,7.20
2018-10-12T12:45:44.688Z,9.67
2018-10-12T12:48:14.000Z,7.30
2018-10-12T12:50:43.785Z,7.70
2018-10-12T12:53:13.362Z,7.97
2018-10-12T13:00:43.169Z,9.23
2018-10-12T13:03:13.879Z,9.03
2018-10-12T13:05:44.110Z,7.72
2018-10-12T13:08:13.580Z,6.47
2018-10-12T13:15:43.470Z,14.20
2018-10-12T13:18:13.717Z,6.93
2018-10-12T13:25:41.913Z,8.90
2018-10-12T13:28:10.988Z,9.10
2018-10-12T13:30:40.698Z,7.33
2018-10-12T13:33:09.928Z,10.23
2018-10-12T13:35:39.340Z,11.13
2018-10-12T13:38:08.491Z,7.90
2018-10-12T13:40:37.625Z,8.07
2018-10-12T13:43:07.064Z,7.50
2018-10-12T13:45:36.239Z,5.67
2018-10-12T13:48:05.366Z,5.63
2018-10-12T13:50:34.481Z,7.00
2018-10-12T13:53:03.854Z,11.07
2018-10-12T13:55:32.942Z,4.15
2018-10-12T13:58:02.053Z,4.97
2018-10-12T14:00:31.382Z,4.80
2018-10-12T14:03:00.464Z,5.50
2018-10-12T14:05:29.687Z,4.45
2018-10-12T14:07:58.777Z,9.93
2018-10-12T14:10:27.926Z,7.25
2018-10-12T14:12:57.067Z,5.80
2018-10-12T14:15:26.232Z,6.60
2018-10-12T14:17:55.419Z,5.22
2018-10-12T14:20:24.608Z,5.05
2018-10-12T14:22:53.759Z,4.30
2018-10-12T14:25:22.859Z,5.75
2018-10-12T14:27:52.111Z,4.10
2018-10-12T14:30:21.184Z,7.25
2018-10-12T14:32:50.332Z,3.60
2018-10-12T14:35:19.497Z,6.65
2018-10-12T14:37:48.654Z,4.93
2018-10-12T14:40:17.823Z,5.30
2018-10-12T14:42:46.989Z,3.73
2018-10-12T14:45:16.106Z,5.30
2018-10-12T14:47:45.248Z,3.47
2018-10-12T14:50:14.717Z,4.73
2018-10-12T14:57:49.901Z,4.43
2018-10-12T15:00:19.199Z,4.60
2018-10-12T15:02:48.420Z,8.30
2018-10-12T15:05:17.511Z,6.47
2018-10-12T15:07:46.737Z,6.30
2018-10-12T15:10:15.847Z,3.77
2018-10-12T15:12:45.255Z,4.70
2018-10-12T15:15:19.066Z,4.27
2018-10-12T15:17:49.216Z,5.20
2018-10-12T15:20:18.335Z,6.03
2018-10-12T15:25:23.468Z,3.07
2018-10-12T15:27:52.642Z,5.73
2018-10-12T15:30:22.017Z,6.90
2018-10-12T15:32:51.264Z,3.33
2018-10-12T15:35:20.380Z,4.83
2018-10-12T15:37:49.629Z,4.13
2018-10-12T15:40:18.851Z,3.07
2018-10-12T15:42:47.927Z,4.10
2018-10-12T15:45:17.064Z,3.50
2018-10-12T15:47:46.191Z,4.17
2018-10-12T15:50:15.409Z,3.20
2018-10-12T15:52:45.540Z,5.33
2018-10-12T15:55:15.261Z,3.93
2018-10-12T16:55:22.079Z,8.70
2018-10-12T16:57:51.204Z,13.17
2018-10-12T17:00:20.287Z,5.80
2018-10-12T17:02:49.409Z,6.07
2018-10-12T17:05:18.554Z,6.03
2018-10-12T17:07:47.694Z,10.00
2018-10-12T17:10:16.806Z,9.47
2018-10-12T17:12:46.367Z,6.55
2018-10-12T17:15:15.961Z,8.80
2018-10-12T17:22:59.586Z,10.30
2018-10-12T17:25:28.940Z,11.68
2018-10-12T17:27:58.092Z,8.65
2018-10-12T17:30:27.306Z,10.33
2018-10-12T17:32:56.400Z,16.73
2018-10-12T17:35:25.666Z,9.17
2018-10-12T17:37:54.794Z,12.30
2018-10-12T17:40:23.926Z,11.22
2018-10-12T17:42:53.063Z,14.13
2018-10-12T17:45:22.666Z,9.77
2018-10-12T17:47:51.769Z,17.60
2018-10-12T17:50:21.002Z,20.37
2018-10-12T17:52:50.204Z,9.73
2018-10-12T17:55:19.339Z,16.00
2018-10-12T17:57:48.535Z,17.40
2018-10-12T18:00:18.114Z,12.77
2018-10-12T18:02:47.215Z,14.13
2018-10-12T18:05:16.442Z,13.63
2018-10-12T18:12:50.986Z,20.57
2018-10-12T18:15:20.238Z,22.83
2018-10-12T18:17:49.536Z,18.93
2018-10-12T18:20:18.955Z,15.87
2018-10-12T18:22:48.560Z,13.50
2018-10-12T18:25:18.259Z,10.20
2018-10-12T18:27:47.764Z,14.17
2018-10-12T18:30:17.114Z,11.83
2018-10-12T18:32:47.320Z,12.95
2018-10-12T18:35:17.074Z,14.73
2018-10-12T18:37:47.541Z,13.48
2018-10-12T18:40:17.072Z,16.48
2018-10-12T18:42:47.433Z,17.62
2018-10-12T18:45:16.993Z,21.80
2018-10-12T18:53:00.881Z,16.37
2018-10-12T18:55:33.045Z,14.50
2018-10-12T18:58:03.375Z,14.75
2018-10-12T19:03:12.226Z,12.20
2018-10-12T19:05:41.808Z,12.30
2018-10-12T19:08:11.360Z,15.93
2018-10-12T19:10:41.587Z,14.17
2018-10-12T19:13:11.263Z,9.10
2018-10-12T19:15:41.151Z,13.87
2018-10-12T19:18:11.209Z,9.53
2018-10-12T19:20:42.047Z,9.60
2018-10-12T19:23:11.621Z,9.77
2018-10-12T19:25:41.530Z,10.37
2018-10-12T19:28:11.080Z,8.53
2018-10-12T19:30:41.077Z,14.80
2018-10-12T19:33:11.028Z,8.60
2018-10-12T19:35:41.196Z,11.83
2018-10-12T19:38:10.940Z,17.07
2018-10-12T19:40:41.485Z,17.63
2018-10-12T19:43:11.077Z,15.43
2018-10-12T19:45:40.944Z,16.53
2018-10-12T19:48:10.465Z,14.07
2018-10-12T19:50:39.958Z,16.73
2018-10-12T19:53:10.497Z,15.40
2018-10-12T19:55:40.383Z,13.83
2018-10-12T19:58:09.870Z,18.93
2018-10-12T20:00:39.541Z,16.37
2018-10-12T20:26:47.378Z,14.90
2018-10-12T20:31:46.500Z,12.40
2018-10-12T20:34:15.922Z,14.17
2018-10-12T20:36:46.315Z,12.00
2018-10-12T20:39:15.970Z,13.33
2018-10-12T20:41:46.125Z,13.10
2018-10-12T20:44:15.424Z,17.33
2018-10-12T20:46:45.049Z,11.73
2018-10-12T20:49:15.057Z,13.28
2018-10-12T20:51:44.784Z,12.27
2018-10-12T20:54:13.962Z,10.90
2018-10-12T20:56:43.486Z,14.13
2018-10-12T20:59:12.692Z,15.73
2018-10-12T21:01:42.202Z,12.03
2018-10-12T21:04:11.390Z,14.00
2018-10-12T21:06:40.862Z,14.10
2018-10-12T21:09:10.569Z,13.20
2018-10-12T21:11:39.744Z,15.80
2018-10-12T21:14:08.883Z,15.93
2018-10-12T21:16:37.979Z,14.47
2018-10-12T21:19:07.140Z,13.87
2018-10-12T21:21:36.267Z,18.67
2018-10-12T21:24:05.396Z,12.18
2018-10-12T21:26:34.537Z,10.37
2018-10-12T21:29:03.684Z,16.70
2018-10-12T21:31:32.802Z,20.68
2018-10-12T21:34:01.908Z,16.77
2018-10-12T21:36:31.084Z,13.75
2018-10-12T21:39:00.193Z,16.30
2018-10-12T21:41:29.308Z,15.10
2018-10-12T21:43:58.403Z,14.00
2018-10-12T21:46:27.563Z,14.70
2018-10-12T21:48:56.665Z,14.35
2018-10-12T21:51:25.854Z,20.40
2018-10-12T21:53:54.967Z,22.82
2018-10-12T21:56:24.077Z,17.80
2018-10-12T21:58:53.278Z,14.90
2018-10-12T22:01:22.507Z,18.33
2018-10-12T22:03:51.635Z,16.47
2018-10-12T22:06:20.741Z,16.20
2018-10-12T22:08:50.963Z,17.30
2018-10-12T22:11:20.052Z,18.37
2018-10-12T22:13:49.244Z,16.87
2018-10-12T22:16:18.761Z,17.87
2018-10-12T22:34:28.392Z,17.00
2018-10-12T22:36:57.568Z,14.87
2018-10-12T22:39:26.714Z,16.15
2018-10-12T22:41:55.859Z,19.40
2018-10-12T22:44:25.023Z,15.10
2018-10-12T22:46:54.164Z,14.98
2018-10-12T22:49:23.226Z,12.13
2018-10-12T22:51:52.298Z,11.87
2018-10-12T22:54:21.394Z,13.78
2018-10-12T22:56:55.252Z,14.07
2018-10-12T22:59:24.397Z,14.90
2018-10-12T23:01:53.530Z,13.08
2018-10-12T23:04:22.645Z,16.13
2018-10-12T23:06:51.720Z,19.23
2018-10-12T23:09:20.819Z,15.60
2018-10-12T23:11:49.852Z,13.40
2018-10-12T23:14:19.237Z,10.50
2018-10-12T23:16:49.396Z,14.13
2018-10-12T23:19:19.331Z,17.60
2018-10-12T23:21:49.363Z,15.00
2018-10-12T23:24:19.314Z,17.73
2018-10-12T23:26:49.514Z,14.55
2018-10-12T23:29:19.366Z,19.50
2018-10-12T23:31:49.528Z,22.55
2018-10-12T23:34:19.417Z,19.13
2018-10-12T23:36:49.510Z,16.50
2018-10-12T23:39:19.531Z,22.60
2018-10-12T23:41:49.448Z,18.25
2018-10-12T23:44:19.552Z,21.25
2018-10-12T23:46:49.574Z,17.75
2018-10-12T23:49:19.574Z,21.40
2018-10-12T23:51:49.640Z,16.52
2018-10-12T23:54:19.594Z,21.70
2018-10-12T23:56:49.660Z,16.82
2018-10-12T23:59:19.570Z,19.13
